Flight Track Log - Related Links

Times and Time Zones

All times are in EDT time to prevent confusion due to time zone crossing. See the N203BK flight status page for this flight to view local times or setup timezone preferences in your user account.

Time Position Orientation Groundspeed Altitude Reporting Facility
EDT Latitude Longitude Course Direction KTS MPH feet Rate Location/Type
Tue 04:35:04 PM 35.3581 -97.6122 187° South 141 162 2,600  Level Fort Worth Center
Tue 04:36:05 PM 35.3183 -97.6094 177° South 140 161 4,500 1,736 Climbing Fort Worth Center
Tue 04:37:05 PM 35.2936 -97.5661 125° Southeast 165 190 6,100 1,488 Climbing Fort Worth Center
Tue 04:38:06 PM 35.2789 -97.5103 108° East 175 201 7,500 1,313 Climbing Fort Worth Center
Tue 04:39:13 PM 35.2603 -97.4467 110° East 186 214 8,900 1,359 Climbing Fort Worth Center
Tue 04:40:14 PM 35.2394 -97.3781 110° East 204 235 10,400 1,304 Climbing Fort Worth Center
Tue 04:40:45 PM 35.2394 -97.3425 90° East 202 232 10,900 1,279 Climbing Fort Worth Center
Tue 04:41:15 PM 35.2228 -97.3119 124° Southeast 207 238 11,700 1,300 Climbing Fort Worth Center
Tue 04:41:45 PM 35.2206 -97.2789 95° East 213 245 12,200 1,267 Climbing Fort Worth Center
Tue 04:42:45 PM 35.1997 -97.2128 111° Southeast 220 253 13,600 1,400 Climbing Fort Worth Center
Tue 04:43:45 PM 35.1744 -97.1469 115° Southeast 220 253 15,000 1,250 Climbing Fort Worth Center
Tue 04:44:45 PM 35.1492 -97.0808 115° Southeast 214 246 16,100 1,150 Climbing Fort Worth Center
Tue 04:45:45 PM 35.1178 -97.0175 121° Southeast 214 246 17,300 1,200 Climbing Fort Worth Center
Tue 04:46:45 PM 35.0864 -96.9517 120° Southeast 221 254 18,500 1,250 Climbing Fort Worth Center
Tue 04:47:45 PM 35.0547 -96.8886 122° Southeast 221 254 19,800 1,200 Climbing Fort Worth Center
Tue 04:48:45 PM 35.0253 -96.8253 120° Southeast 221 254 20,900 1,100 Climbing Fort Worth Center
Tue 04:49:45 PM 34.9917 -96.7622 123° Southeast 221 254 22,000 1,000 Climbing Fort Worth Center
Tue 04:50:45 PM 34.9619 -96.7017 121° Southeast 216 249 22,900 850 Climbing Fort Worth Center
Tue 04:51:45 PM 34.9303 -96.6386 121° Southeast 216 249 23,700 800 Climbing Fort Worth Center
Tue 04:52:45 PM 34.8967 -96.5681 120° Southeast 221 254 24,500 650 Climbing Fort Worth Center
Tue 04:53:45 PM 34.8628 -96.5000 121° Southeast 226 260 25,000 250 Climbing Fort Worth Center
Tue 04:54:45 PM 34.8267 -96.4269 121° Southeast 243 280 25,000  Level Fort Worth Center
Tue 04:55:45 PM 34.7864 -96.3467 121° Southeast 258 297 25,000  Level Fort Worth Center
Tue 04:56:45 PM 34.7439 -96.2636 122° Southeast 277 319 25,000  Level Fort Worth Center
Tue 04:57:45 PM 34.7036 -96.1808 121° Southeast 277 319 25,000  Level Fort Worth Center
Tue 04:58:45 PM 34.6611 -96.0983 122° Southeast 283 326 25,000  Level Fort Worth Center
Tue 04:59:45 PM 34.6206 -96.0156 121° Southeast 288 331 25,000  Level Fort Worth Center
Tue 05:00:45 PM 34.5797 -95.9281 120° Southeast 288 331 25,000  Level Fort Worth Center
Tue 05:01:45 PM 34.5369 -95.8456 122° Southeast 288 331 25,000  Level Fort Worth Center
Tue 05:02:45 PM 34.4922 -95.7658 124° Southeast 293 337 25,000  Level Fort Worth Center
Tue 05:03:45 PM 34.4514 -95.6833 121° Southeast 293 337 25,000  Level Fort Worth Center
Tue 05:04:45 PM 34.4086 -95.6011 122° Southeast 288 331 25,000  Level Fort Worth Center
Tue 05:05:45 PM 34.3656 -95.5089 119° Southeast 288 331 25,000  Level Fort Worth Center
Tue 05:06:45 PM 34.3225 -95.4294 123° Southeast 288 331 25,000  Level Fort Worth Center
Tue 05:07:45 PM 34.2817 -95.3450 120° Southeast 288 331 25,000  Level Fort Worth Center
Tue 05:08:45 PM 34.2406 -95.2631 121° Southeast 288 331 25,000  Level Fort Worth Center
Tue 05:09:45 PM 34.1975 -95.1811 122° Southeast 288 331 25,000  Level Fort Worth Center
Tue 05:10:45 PM 34.1564 -95.1019 122° Southeast 288 331 25,000  Level Fort Worth Center
Tue 05:11:45 PM 34.1172 -95.0178 119° Southeast 288 331 25,000  Level Fort Worth Center
Tue 05:12:45 PM 34.0739 -94.9361 123° Southeast 283 326 25,000  Level Fort Worth Center
Tue 05:13:45 PM 34.0306 -94.8597 124° Southeast 283 326 25,000  Level Fort Worth Center
Tue 05:14:45 PM 33.9892 -94.7783 122° Southeast 283 326 25,000  Level Fort Worth Center
Tue 05:15:45 PM 33.9500 -94.6994 121° Southeast 283 326 25,000  Level Fort Worth Center
Tue 05:16:45 PM 33.9108 -94.6206 121° Southeast 278 320 25,000  Level Fort Worth Center
Tue 05:17:45 PM 33.8781 -94.5589 123° Southeast 278 320 25,000  Level Fort Worth Center
Tue 05:18:45 PM 33.8278 -94.4631 122° Southeast 272 313 25,000  Level Fort Worth Center
Tue 05:19:45 PM 33.7928 -94.3944 122° Southeast 272 313 25,000  Level Fort Worth Center
Tue 05:20:45 PM 33.7511 -94.3158 123° Southeast 272 313 25,000  Level Fort Worth Center
Tue 05:21:45 PM 33.7097 -94.2375 122° Southeast 272 313 25,000 -300 Level Fort Worth Center
Tue 05:22:45 PM 33.6678 -94.1564 122° Southeast 272 313 24,400 -850 Descending Fort Worth Center
Tue 05:23:45 PM 33.6239 -94.0733 122° Southeast 277 319 23,300 -1,050 Descending Fort Worth Center
Tue 05:24:45 PM 33.5778 -93.9878 123° Southeast 283 326 22,300 -1,000 Descending Fort Worth Center
Tue 05:25:45 PM 33.5336 -93.8997 121° Southeast 296 341 21,300 -1,000 Descending Fort Worth Center
Tue 05:26:45 PM 33.4875 -93.8144 123° Southeast 301 346 20,300 -1,000 Descending Fort Worth Center
Tue 05:27:45 PM 33.4433 -93.7292 122° Southeast 301 346 19,300 -1,000 Descending Fort Worth Center
Tue 05:28:45 PM 33.3992 -93.6489 123° Southeast 296 341 18,300 -950 Descending Fort Worth Center
Tue 05:29:45 PM 33.3550 -93.5711 124° Southeast 296 341 17,400 -1,000 Descending Fort Worth Center
Tue 05:30:45 PM 33.3131 -93.4936 123° Southeast 291 335 16,300 -1,000 Descending Fort Worth Center
Tue 05:31:45 PM 33.2686 -93.4086 122° Southeast 286 329 15,400 -1,050 Descending Fort Worth Center
Tue 05:32:45 PM 33.2264 -93.3286 122° Southeast 281 323 14,200 -1,100 Descending Fort Worth Center
Tue 05:33:45 PM 33.1819 -93.2511 124° Southeast 281 323 13,200 -1,000 Descending Fort Worth Center
Tue 05:34:45 PM 33.1419 -93.1736 122° Southeast 276 318 12,200 -1,000 Descending Fort Worth Center
Tue 05:35:45 PM 33.0997 -93.0989 124° Southeast 276 318 11,200 -1,000 Descending Fort Worth Center
Tue 05:36:45 PM 33.0594 -93.0239 123° Southeast 276 318 10,200 -1,000 Descending Fort Worth Center
Tue 05:37:45 PM 33.0214 -92.9514 122° Southeast 270 311 9,200 -1,000 Descending Fort Worth Center
Tue 05:38:45 PM 32.9814 -92.8792 123° Southeast 270 311 8,200 -1,000 Descending Fort Worth Center
Tue 05:39:45 PM 32.9411 -92.8094 125° Southeast 265 305 7,200 -600 Descending Fort Worth Center
Tue 05:40:45 PM 32.9053 -92.7397 121° Southeast 265 305 7,000 -500 Descending Fort Worth Center
Tue 05:41:45 PM 32.8672 -92.6747 125° Southeast 251 289 6,200 -900 Descending Fort Worth Center
Tue 05:42:45 PM 32.8311 -92.6050 122° Southeast 246 283 5,200 -1,000 Descending Fort Worth Center
Tue 05:43:45 PM 32.7953 -92.5403 123° Southeast 240 276 4,200 -750 Descending Fort Worth Center
Tue 05:44:45 PM 32.7594 -92.4756 123° Southeast 240 276 3,700 -500 Descending Fort Worth Center
Tue 05:45:45 PM 32.7256 -92.4108 122° Southeast 235 270 3,200 -500 Descending Fort Worth Center
Tue 05:46:45 PM 32.6917 -92.3483 123° Southeast 230 265 2,700 -350 Descending Fort Worth Center
Tue 05:47:45 PM 32.6600 -92.2886 122° Southeast 230 265 2,500 2,150 Descending Fort Worth Center
Tue 05:48:45 PM 32.6261 -92.2239 122° Southeast 230 265 7,000 2,250 Climbing Fort Worth Center
Tue 05:49:45 PM 32.5919 -92.1569 121° Southeast 230 265 7,000  Level Fort Worth Center
Tue 05:50:45 PM 32.5581 -92.0922 122° Southeast 230 265 7,000  Level Fort Worth Center
Tue 05:51:45 PM 32.5444 -92.0661 122° Southeast 230 265 7,000  Level Fort Worth Center
Tue 05:53:45 PM 32.5444 -92.0661 348° North 230 265 7,000  Level Fort Worth Center

Login

Don't have an account? Register now (free) for customized features, flight alerts, and more!